sensor_id;sensor_type;location;lat;lon;timestamp;temperature;humidity
51613;DHT22;37694;51.748;14.326;2022-08-21T00:02:24;22.50;43.60
51613;DHT22;37694;51.748;14.326;2022-08-21T00:04:50;22.50;43.70
51613;DHT22;37694;51.748;14.326;2022-08-21T00:07:17;22.50;43.70
51613;DHT22;37694;51.748;14.326;2022-08-21T00:09:43;22.50;43.90
51613;DHT22;37694;51.748;14.326;2022-08-21T00:12:09;22.50;43.90
51613;DHT22;37694;51.748;14.326;2022-08-21T00:14:34;22.40;43.80
51613;DHT22;37694;51.748;14.326;2022-08-21T00:17:00;22.40;43.90
51613;DHT22;37694;51.748;14.326;2022-08-21T00:19:26;22.40;43.90
51613;DHT22;37694;51.748;14.326;2022-08-21T00:21:52;22.30;43.80
51613;DHT22;37694;51.748;14.326;2022-08-21T00:24:19;22.30;43.80
51613;DHT22;37694;51.748;14.326;2022-08-21T00:26:45;22.30;43.90
51613;DHT22;37694;51.748;14.326;2022-08-21T00:29:11;22.30;43.90
51613;DHT22;37694;51.748;14.326;2022-08-21T00:31:37;22.30;43.90
51613;DHT22;37694;51.748;14.326;2022-08-21T00:34:03;22.30;44.10
51613;DHT22;37694;51.748;14.326;2022-08-21T00:36:29;22.20;43.90
51613;DHT22;37694;51.748;14.326;2022-08-21T00:38:55;22.20;43.90
51613;DHT22;37694;51.748;14.326;2022-08-21T00:41:21;22.20;44.00
51613;DHT22;37694;51.748;14.326;2022-08-21T00:43:48;22.20;44.00
51613;DHT22;37694;51.748;14.326;2022-08-21T00:46:15;22.20;44.00
51613;DHT22;37694;51.748;14.326;2022-08-21T00:48:40;22.20;44.10
51613;DHT22;37694;51.748;14.326;2022-08-21T00:51:31;22.20;44.10
51613;DHT22;37694;51.748;14.326;2022-08-21T00:53:59;22.20;43.70
51613;DHT22;37694;51.748;14.326;2022-08-21T00:56:27;22.10;44.00
51613;DHT22;37694;51.748;14.326;2022-08-21T00:58:55;22.10;44.00
51613;DHT22;37694;51.748;14.326;2022-08-21T01:01:21;22.10;44.00
51613;DHT22;37694;51.748;14.326;2022-08-21T01:03:47;22.10;44.00
51613;DHT22;37694;51.748;14.326;2022-08-21T01:06:13;22.00;44.00
51613;DHT22;37694;51.748;14.326;2022-08-21T01:08:39;22.00;43.90
51613;DHT22;37694;51.748;14.326;2022-08-21T01:11:05;22.00;44.10
51613;DHT22;37694;51.748;14.326;2022-08-21T01:13:35;22.00;44.10
51613;DHT22;37694;51.748;14.326;2022-08-21T01:16:04;22.00;44.00
51613;DHT22;37694;51.748;14.326;2022-08-21T01:18:30;21.90;44.00
51613;DHT22;37694;51.748;14.326;2022-08-21T01:21:14;21.90;44.00
51613;DHT22;37694;51.748;14.326;2022-08-21T01:23:43;21.90;43.90
51613;DHT22;37694;51.748;14.326;2022-08-21T01:26:10;21.80;44.00
51613;DHT22;37694;51.748;14.326;2022-08-21T01:28:45;21.80;44.00
51613;DHT22;37694;51.748;14.326;2022-08-21T01:31:12;21.80;43.90
51613;DHT22;37694;51.748;14.326;2022-08-21T01:33:39;21.80;44.10
51613;DHT22;37694;51.748;14.326;2022-08-21T01:36:05;21.80;44.20
51613;DHT22;37694;51.748;14.326;2022-08-21T01:38:31;21.70;44.00
51613;DHT22;37694;51.748;14.326;2022-08-21T01:40:57;21.70;44.10
51613;DHT22;37694;51.748;14.326;2022-08-21T01:43:23;21.70;44.10
51613;DHT22;37694;51.748;14.326;2022-08-21T01:45:49;21.70;44.10
51613;DHT22;37694;51.748;14.326;2022-08-21T01:48:14;21.60;44.00
51613;DHT22;37694;51.748;14.326;2022-08-21T01:50:40;21.60;44.20
51613;DHT22;37694;51.748;14.326;2022-08-21T01:53:06;21.60;44.10
51613;DHT22;37694;51.748;14.326;2022-08-21T01:55:31;21.60;45.20
51613;DHT22;37694;51.748;14.326;2022-08-21T01:57:58;21.60;44.10
51613;DHT22;37694;51.748;14.326;2022-08-21T02:00:25;21.60;44.10
51613;DHT22;37694;51.748;14.326;2022-08-21T02:02:51;21.50;44.30
51613;DHT22;37694;51.748;14.326;2022-08-21T02:05:17;21.50;44.00
51613;DHT22;37694;51.748;14.326;2022-08-21T02:07:49;21.50;44.10
51613;DHT22;37694;51.748;14.326;2022-08-21T02:10:19;21.50;44.10
51613;DHT22;37694;51.748;14.326;2022-08-21T02:12:45;21.50;44.10
51613;DHT22;37694;51.748;14.326;2022-08-21T02:15:11;21.50;44.10
51613;DHT22;37694;51.748;14.326;2022-08-21T02:17:45;21.40;44.00
51613;DHT22;37694;51.748;14.326;2022-08-21T02:20:17;21.50;44.00
51613;DHT22;37694;51.748;14.326;2022-08-21T02:22:43;21.40;44.10
51613;DHT22;37694;51.748;14.326;2022-08-21T02:25:08;21.40;44.10
51613;DHT22;37694;51.748;14.326;2022-08-21T02:27:43;21.40;44.20
51613;DHT22;37694;51.748;14.326;2022-08-21T02:30:18;21.40;43.90
51613;DHT22;37694;51.748;14.326;2022-08-21T02:32:44;21.40;44.00
51613;DHT22;37694;51.748;14.326;2022-08-21T02:35:10;21.30;44.00
51613;DHT22;37694;51.748;14.326;2022-08-21T02:37:50;21.40;44.00
51613;DHT22;37694;51.748;14.326;2022-08-21T02:40:20;21.40;43.90
51613;DHT22;37694;51.748;14.326;2022-08-21T02:42:46;21.30;44.10
51613;DHT22;37694;51.748;14.326;2022-08-21T02:45:13;21.30;44.20
51613;DHT22;37694;51.748;14.326;2022-08-21T02:47:39;21.30;44.10
51613;DHT22;37694;51.748;14.326;2022-08-21T02:50:06;21.20;44.20
51613;DHT22;37694;51.748;14.326;2022-08-21T02:52:32;21.20;46.60
51613;DHT22;37694;51.748;14.326;2022-08-21T02:54:58;21.30;48.60
51613;DHT22;37694;51.748;14.326;2022-08-21T02:57:24;21.40;49.60
51613;DHT22;37694;51.748;14.326;2022-08-21T02:59:50;21.40;50.30
51613;DHT22;37694;51.748;14.326;2022-08-21T03:02:15;21.50;50.90
51613;DHT22;37694;51.748;14.326;2022-08-21T03:04:41;21.60;51.40
51613;DHT22;37694;51.748;14.326;2022-08-21T03:07:07;21.60;52.60
51613;DHT22;37694;51.748;14.326;2022-08-21T03:09:32;21.70;52.00
51613;DHT22;37694;51.748;14.326;2022-08-21T03:11:58;21.70;52.40
51613;DHT22;37694;51.748;14.326;2022-08-21T03:14:23;21.80;52.60
51613;DHT22;37694;51.748;14.326;2022-08-21T03:16:49;21.80;52.70
51613;DHT22;37694;51.748;14.326;2022-08-21T03:19:15;21.90;53.00
51613;DHT22;37694;51.748;14.326;2022-08-21T03:21:41;22.00;53.00
51613;DHT22;37694;51.748;14.326;2022-08-21T03:24:06;22.00;53.10
51613;DHT22;37694;51.748;14.326;2022-08-21T03:26:32;22.10;53.20
51613;DHT22;37694;51.748;14.326;2022-08-21T03:28:58;22.10;53.20
51613;DHT22;37694;51.748;14.326;2022-08-21T03:31:24;22.20;53.40
51613;DHT22;37694;51.748;14.326;2022-08-21T03:33:53;22.20;54.10
51613;DHT22;37694;51.748;14.326;2022-08-21T03:36:20;22.30;53.30
51613;DHT22;37694;51.748;14.326;2022-08-21T03:38:46;22.30;53.30
51613;DHT22;37694;51.748;14.326;2022-08-21T03:41:12;22.30;53.20
51613;DHT22;37694;51.748;14.326;2022-08-21T03:43:37;22.40;53.30
51613;DHT22;37694;51.748;14.326;2022-08-21T03:46:05;22.40;53.20
51613;DHT22;37694;51.748;14.326;2022-08-21T03:48:32;22.50;53.30
51613;DHT22;37694;51.748;14.326;2022-08-21T03:50:58;22.50;53.20
51613;DHT22;37694;51.748;14.326;2022-08-21T03:53:23;22.60;53.10
51613;DHT22;37694;51.748;14.326;2022-08-21T03:55:50;22.60;53.20
51613;DHT22;37694;51.748;14.326;2022-08-21T03:58:21;22.60;53.10
51613;DHT22;37694;51.748;14.326;2022-08-21T04:00:50;22.60;53.00
51613;DHT22;37694;51.748;14.326;2022-08-21T04:03:17;22.70;52.90
51613;DHT22;37694;51.748;14.326;2022-08-21T04:05:44;22.70;52.90
51613;DHT22;37694;51.748;14.326;2022-08-21T04:08:11;22.80;52.90
51613;DHT22;37694;51.748;14.326;2022-08-21T04:10:39;22.80;52.80
51613;DHT22;37694;51.748;14.326;2022-08-21T04:13:06;22.80;52.70
51613;DHT22;37694;51.748;14.326;2022-08-21T04:15:33;22.90;52.80
51613;DHT22;37694;51.748;14.326;2022-08-21T04:17:59;22.90;52.80
51613;DHT22;37694;51.748;14.326;2022-08-21T04:20:26;22.90;52.10
51613;DHT22;37694;51.748;14.326;2022-08-21T04:22:52;22.70;52.60
51613;DHT22;37694;51.748;14.326;2022-08-21T04:25:20;22.50;52.60
51613;DHT22;37694;51.748;14.326;2022-08-21T04:27:46;22.40;52.80
51613;DHT22;37694;51.748;14.326;2022-08-21T04:30:13;22.30;53.10
51613;DHT22;37694;51.748;14.326;2022-08-21T04:32:42;22.20;53.60
51613;DHT22;37694;51.748;14.326;2022-08-21T04:35:10;22.10;54.20
51613;DHT22;37694;51.748;14.326;2022-08-21T04:37:36;22.10;54.60
51613;DHT22;37694;51.748;14.326;2022-08-21T04:40:03;22.10;54.60
51613;DHT22;37694;51.748;14.326;2022-08-21T04:42:29;22.10;54.00
51613;DHT22;37694;51.748;14.326;2022-08-21T04:44:55;22.00;54.10
51613;DHT22;37694;51.748;14.326;2022-08-21T04:47:22;22.00;54.40
51613;DHT22;37694;51.748;14.326;2022-08-21T04:49:48;22.00;54.50
51613;DHT22;37694;51.748;14.326;2022-08-21T04:52:18;21.90;55.00
51613;DHT22;37694;51.748;14.326;2022-08-21T04:54:45;22.00;54.90
51613;DHT22;37694;51.748;14.326;2022-08-21T04:57:14;22.00;54.30
51613;DHT22;37694;51.748;14.326;2022-08-21T04:59:46;22.00;54.40
51613;DHT22;37694;51.748;14.326;2022-08-21T05:02:13;21.90;54.50
51613;DHT22;37694;51.748;14.326;2022-08-21T05:04:46;21.90;54.70
51613;DHT22;37694;51.748;14.326;2022-08-21T05:07:18;21.90;55.00
51613;DHT22;37694;51.748;14.326;2022-08-21T05:09:45;21.80;55.20
51613;DHT22;37694;51.748;14.326;2022-08-21T05:12:11;21.90;55.40
51613;DHT22;37694;51.748;14.326;2022-08-21T05:14:37;21.80;55.20
51613;DHT22;37694;51.748;14.326;2022-08-21T05:17:03;21.90;54.70
51613;DHT22;37694;51.748;14.326;2022-08-21T05:19:29;21.90;54.50
51613;DHT22;37694;51.748;14.326;2022-08-21T05:21:55;21.80;54.70
51613;DHT22;37694;51.748;14.326;2022-08-21T05:24:21;21.80;54.90
51613;DHT22;37694;51.748;14.326;2022-08-21T05:26:47;21.80;55.20
51613;DHT22;37694;51.748;14.326;2022-08-21T05:29:14;21.80;55.40
51613;DHT22;37694;51.748;14.326;2022-08-21T05:31:40;21.80;55.80
51613;DHT22;37694;51.748;14.326;2022-08-21T05:34:06;21.80;55.80
51613;DHT22;37694;51.748;14.326;2022-08-21T05:36:31;21.90;55.70
51613;DHT22;37694;51.748;14.326;2022-08-21T05:38:57;21.90;54.80
51613;DHT22;37694;51.748;14.326;2022-08-21T05:41:23;21.80;55.00
51613;DHT22;37694;51.748;14.326;2022-08-21T05:43:48;21.80;55.10
51613;DHT22;37694;51.748;14.326;2022-08-21T05:46:14;21.80;55.40
51613;DHT22;37694;51.748;14.326;2022-08-21T05:48:40;21.80;55.60
51613;DHT22;37694;51.748;14.326;2022-08-21T05:51:11;21.80;55.80
51613;DHT22;37694;51.748;14.326;2022-08-21T05:53:38;21.80;56.40
51613;DHT22;37694;51.748;14.326;2022-08-21T05:56:04;21.80;56.10
51613;DHT22;37694;51.748;14.326;2022-08-21T05:58:31;21.90;55.40
51613;DHT22;37694;51.748;14.326;2022-08-21T06:00:58;21.90;55.20
51613;DHT22;37694;51.748;14.326;2022-08-21T06:03:27;21.90;55.40
51613;DHT22;37694;51.748;14.326;2022-08-21T06:05:53;21.80;55.80
51613;DHT22;37694;51.748;14.326;2022-08-21T06:08:20;21.80;56.00
51613;DHT22;37694;51.748;14.326;2022-08-21T06:10:47;21.80;56.50
51613;DHT22;37694;51.748;14.326;2022-08-21T06:13:14;21.80;56.80
51613;DHT22;37694;51.748;14.326;2022-08-21T06:15:40;21.90;56.50
51613;DHT22;37694;51.748;14.326;2022-08-21T06:18:06;22.00;56.30
51613;DHT22;37694;51.748;14.326;2022-08-21T06:20:32;22.10;55.90
51613;DHT22;37694;51.748;14.326;2022-08-21T06:22:58;22.20;55.40
51613;DHT22;37694;51.748;14.326;2022-08-21T06:25:24;22.40;55.20
51613;DHT22;37694;51.748;14.326;2022-08-21T06:27:50;22.50;54.90
51613;DHT22;37694;51.748;14.326;2022-08-21T06:30:16;22.60;54.80
51613;DHT22;37694;51.748;14.326;2022-08-21T06:32:42;22.80;54.60
51613;DHT22;37694;51.748;14.326;2022-08-21T06:35:08;22.90;54.50
51613;DHT22;37694;51.748;14.326;2022-08-21T06:37:34;22.90;54.30
51613;DHT22;37694;51.748;14.326;2022-08-21T06:40:00;23.00;54.30
51613;DHT22;37694;51.748;14.326;2022-08-21T06:42:26;23.10;54.30
51613;DHT22;37694;51.748;14.326;2022-08-21T06:44:53;23.20;54.10
51613;DHT22;37694;51.748;14.326;2022-08-21T06:47:18;23.20;53.90
51613;DHT22;37694;51.748;14.326;2022-08-21T06:49:44;23.20;53.80
51613;DHT22;37694;51.748;14.326;2022-08-21T06:52:12;23.30;53.80
51613;DHT22;37694;51.748;14.326;2022-08-21T06:54:38;23.40;53.90
51613;DHT22;37694;51.748;14.326;2022-08-21T06:57:04;23.40;53.80
51613;DHT22;37694;51.748;14.326;2022-08-21T06:59:30;23.50;53.70
51613;DHT22;37694;51.748;14.326;2022-08-21T07:01:57;23.50;53.60
51613;DHT22;37694;51.748;14.326;2022-08-21T07:04:23;23.50;53.60
51613;DHT22;37694;51.748;14.326;2022-08-21T07:06:48;23.60;53.70
51613;DHT22;37694;51.748;14.326;2022-08-21T07:09:14;23.60;53.40
51613;DHT22;37694;51.748;14.326;2022-08-21T07:11:40;23.60;53.40
51613;DHT22;37694;51.748;14.326;2022-08-21T07:14:06;23.70;53.30
51613;DHT22;37694;51.748;14.326;2022-08-21T07:16:31;23.70;53.20
51613;DHT22;37694;51.748;14.326;2022-08-21T07:18:57;23.80;53.10
51613;DHT22;37694;51.748;14.326;2022-08-21T07:21:22;23.80;52.80
51613;DHT22;37694;51.748;14.326;2022-08-21T07:23:50;23.80;52.90
51613;DHT22;37694;51.748;14.326;2022-08-21T07:26:18;23.80;52.90
51613;DHT22;37694;51.748;14.326;2022-08-21T07:28:46;23.90;53.20
51613;DHT22;37694;51.748;14.326;2022-08-21T07:31:14;23.90;53.40
51613;DHT22;37694;51.748;14.326;2022-08-21T07:33:41;24.00;53.50
51613;DHT22;37694;51.748;14.326;2022-08-21T07:36:07;24.00;53.40
51613;DHT22;37694;51.748;14.326;2022-08-21T07:38:33;24.00;53.10
51613;DHT22;37694;51.748;14.326;2022-08-21T07:41:00;24.00;52.90
51613;DHT22;37694;51.748;14.326;2022-08-21T07:43:27;24.10;52.70
51613;DHT22;37694;51.748;14.326;2022-08-21T07:45:53;24.10;52.80
51613;DHT22;37694;51.748;14.326;2022-08-21T07:48:20;24.10;52.80
51613;DHT22;37694;51.748;14.326;2022-08-21T07:50:47;24.10;52.70
51613;DHT22;37694;51.748;14.326;2022-08-21T07:53:13;24.10;52.70
51613;DHT22;37694;51.748;14.326;2022-08-21T07:55:38;24.20;52.80
51613;DHT22;37694;51.748;14.326;2022-08-21T07:58:04;24.30;52.80
51613;DHT22;37694;51.748;14.326;2022-08-21T08:00:30;24.30;52.70
51613;DHT22;37694;51.748;14.326;2022-08-21T08:02:56;24.30;52.70
51613;DHT22;37694;51.748;14.326;2022-08-21T08:05:25;24.30;52.70
51613;DHT22;37694;51.748;14.326;2022-08-21T08:07:51;24.30;52.60
51613;DHT22;37694;51.748;14.326;2022-08-21T08:10:17;24.30;52.70
51613;DHT22;37694;51.748;14.326;2022-08-21T08:12:44;24.40;52.90
51613;DHT22;37694;51.748;14.326;2022-08-21T08:15:14;24.40;53.00
51613;DHT22;37694;51.748;14.326;2022-08-21T08:17:40;24.50;53.10
51613;DHT22;37694;51.748;14.326;2022-08-21T08:20:07;24.50;53.10
51613;DHT22;37694;51.748;14.326;2022-08-21T08:22:34;24.50;53.00
51613;DHT22;37694;51.748;14.326;2022-08-21T08:25:00;24.50;53.00
51613;DHT22;37694;51.748;14.326;2022-08-21T08:27:25;24.50;53.20
51613;DHT22;37694;51.748;14.326;2022-08-21T08:29:51;24.60;53.10
51613;DHT22;37694;51.748;14.326;2022-08-21T08:32:17;24.60;53.00
51613;DHT22;37694;51.748;14.326;2022-08-21T08:34:43;24.60;53.00
51613;DHT22;37694;51.748;14.326;2022-08-21T08:37:10;24.60;53.50
51613;DHT22;37694;51.748;14.326;2022-08-21T08:39:36;24.70;53.20
51613;DHT22;37694;51.748;14.326;2022-08-21T08:42:14;24.70;53.20
51613;DHT22;37694;51.748;14.326;2022-08-21T08:44:41;24.70;53.30
51613;DHT22;37694;51.748;14.326;2022-08-21T08:47:09;24.70;53.30
51613;DHT22;37694;51.748;14.326;2022-08-21T08:50:17;24.80;53.30
51613;DHT22;37694;51.748;14.326;2022-08-21T08:53:33;24.80;52.90
51613;DHT22;37694;51.748;14.326;2022-08-21T08:55:39;24.80;53.20
51613;DHT22;37694;51.748;14.326;2022-08-21T08:58:06;24.90;53.80
51613;DHT22;37694;51.748;14.326;2022-08-21T09:00:32;24.80;54.40
51613;DHT22;37694;51.748;14.326;2022-08-21T09:03:01;24.80;54.80
51613;DHT22;37694;51.748;14.326;2022-08-21T09:05:35;24.80;55.00
51613;DHT22;37694;51.748;14.326;2022-08-21T09:08:27;24.80;55.30
51613;DHT22;37694;51.748;14.326;2022-08-21T09:13:31;24.80;55.50
51613;DHT22;37694;51.748;14.326;2022-08-21T09:16:05;24.90;55.60
51613;DHT22;37694;51.748;14.326;2022-08-21T09:21:58;24.90;55.40
51613;DHT22;37694;51.748;14.326;2022-08-21T09:27:16;24.90;55.60
51613;DHT22;37694;51.748;14.326;2022-08-21T09:29:45;25.00;55.40
51613;DHT22;37694;51.748;14.326;2022-08-21T09:32:19;25.00;55.30
51613;DHT22;37694;51.748;14.326;2022-08-21T09:35:15;25.00;55.00
51613;DHT22;37694;51.748;14.326;2022-08-21T09:38:03;25.00;55.00
51613;DHT22;37694;51.748;14.326;2022-08-21T09:40:38;25.10;54.90
51613;DHT22;37694;51.748;14.326;2022-08-21T09:45:35;25.10;54.90
51613;DHT22;37694;51.748;14.326;2022-08-21T09:48:22;25.20;54.80
51613;DHT22;37694;51.748;14.326;2022-08-21T09:50:49;25.20;55.70
51613;DHT22;37694;51.748;14.326;2022-08-21T09:56:16;25.30;54.40
51613;DHT22;37694;51.748;14.326;2022-08-21T09:59:11;25.30;54.50
51613;DHT22;37694;51.748;14.326;2022-08-21T10:01:43;25.30;54.10
51613;DHT22;37694;51.748;14.326;2022-08-21T10:04:09;25.40;54.10
51613;DHT22;37694;51.748;14.326;2022-08-21T10:06:35;25.40;54.80
51613;DHT22;37694;51.748;14.326;2022-08-21T10:09:13;25.40;54.60
51613;DHT22;37694;51.748;14.326;2022-08-21T10:11:40;25.50;54.70
51613;DHT22;37694;51.748;14.326;2022-08-21T10:17:04;25.70;55.20
51613;DHT22;37694;51.748;14.326;2022-08-21T10:22:26;25.70;54.60
51613;DHT22;37694;51.748;14.326;2022-08-21T10:28:07;25.80;54.50
51613;DHT22;37694;51.748;14.326;2022-08-21T10:30:53;25.90;54.20
51613;DHT22;37694;51.748;14.326;2022-08-21T10:38:46;26.00;53.80
51613;DHT22;37694;51.748;14.326;2022-08-21T10:41:27;26.00;53.40
51613;DHT22;37694;51.748;14.326;2022-08-21T10:44:23;26.10;54.10
51613;DHT22;37694;51.748;14.326;2022-08-21T10:46:57;26.10;53.80
51613;DHT22;37694;51.748;14.326;2022-08-21T10:54:59;26.10;53.30
51613;DHT22;37694;51.748;14.326;2022-08-21T10:57:31;26.10;53.40
51613;DHT22;37694;51.748;14.326;2022-08-21T11:00:06;26.10;53.70
51613;DHT22;37694;51.748;14.326;2022-08-21T11:03:02;26.10;53.20
51613;DHT22;37694;51.748;14.326;2022-08-21T11:05:48;26.10;53.30
51613;DHT22;37694;51.748;14.326;2022-08-21T11:08:28;26.20;52.90
51613;DHT22;37694;51.748;14.326;2022-08-21T11:11:20;26.10;53.00
51613;DHT22;37694;51.748;14.326;2022-08-21T11:14:21;26.20;52.70
51613;DHT22;37694;51.748;14.326;2022-08-21T11:16:59;26.20;53.00
51613;DHT22;37694;51.748;14.326;2022-08-21T11:19:32;26.10;53.20
51613;DHT22;37694;51.748;14.326;2022-08-21T11:22:43;26.10;52.90
51613;DHT22;37694;51.748;14.326;2022-08-21T11:27:43;26.10;52.70
51613;DHT22;37694;51.748;14.326;2022-08-21T11:30:11;26.10;52.80
51613;DHT22;37694;51.748;14.326;2022-08-21T11:38:05;26.10;51.80
51613;DHT22;37694;51.748;14.326;2022-08-21T11:51:22;26.10;52.10
51613;DHT22;37694;51.748;14.326;2022-08-21T11:54:20;26.20;51.90
51613;DHT22;37694;51.748;14.326;2022-08-21T11:56:53;26.20;51.90
51613;DHT22;37694;51.748;14.326;2022-08-21T11:59:25;26.20;51.90
51613;DHT22;37694;51.748;14.326;2022-08-21T12:01:53;26.20;52.20
51613;DHT22;37694;51.748;14.326;2022-08-21T12:04:34;26.20;51.90
51613;DHT22;37694;51.748;14.326;2022-08-21T12:07:16;26.20;52.70
51613;DHT22;37694;51.748;14.326;2022-08-21T12:09:53;26.20;51.90
51613;DHT22;37694;51.748;14.326;2022-08-21T12:12:31;26.20;51.90
51613;DHT22;37694;51.748;14.326;2022-08-21T12:15:25;26.20;51.90
51613;DHT22;37694;51.748;14.326;2022-08-21T12:18:04;26.30;52.00
51613;DHT22;37694;51.748;14.326;2022-08-21T12:20:41;26.30;52.30
51613;DHT22;37694;51.748;14.326;2022-08-21T12:26:03;26.30;52.40
51613;DHT22;37694;51.748;14.326;2022-08-21T12:28:34;26.30;52.20
51613;DHT22;37694;51.748;14.326;2022-08-21T12:31:00;26.30;52.50
51613;DHT22;37694;51.748;14.326;2022-08-21T12:33:36;26.30;52.30
51613;DHT22;37694;51.748;14.326;2022-08-21T12:36:19;26.30;52.20
51613;DHT22;37694;51.748;14.326;2022-08-21T12:41:26;26.30;52.50
51613;DHT22;37694;51.748;14.326;2022-08-21T12:44:12;26.30;52.00
51613;DHT22;37694;51.748;14.326;2022-08-21T12:50:09;26.40;51.50
51613;DHT22;37694;51.748;14.326;2022-08-21T12:52:41;26.40;51.50
51613;DHT22;37694;51.748;14.326;2022-08-21T12:55:13;26.40;51.60
51613;DHT22;37694;51.748;14.326;2022-08-21T12:57:41;26.40;51.50
51613;DHT22;37694;51.748;14.326;2022-08-21T13:00:11;26.50;51.80
51613;DHT22;37694;51.748;14.326;2022-08-21T13:02:42;26.50;51.60
51613;DHT22;37694;51.748;14.326;2022-08-21T13:05:14;26.50;51.50
51613;DHT22;37694;51.748;14.326;2022-08-21T13:07:44;26.50;51.50
51613;DHT22;37694;51.748;14.326;2022-08-21T13:10:23;26.50;51.80
51613;DHT22;37694;51.748;14.326;2022-08-21T13:12:49;26.50;51.80
51613;DHT22;37694;51.748;14.326;2022-08-21T13:15:28;26.50;51.80
51613;DHT22;37694;51.748;14.326;2022-08-21T13:17:54;26.60;52.20
51613;DHT22;37694;51.748;14.326;2022-08-21T13:20:23;26.50;52.10
51613;DHT22;37694;51.748;14.326;2022-08-21T13:22:49;26.60;52.20
51613;DHT22;37694;51.748;14.326;2022-08-21T13:25:18;26.60;52.20
51613;DHT22;37694;51.748;14.326;2022-08-21T13:27:56;26.60;52.40
51613;DHT22;37694;51.748;14.326;2022-08-21T13:30:22;26.60;53.10
51613;DHT22;37694;51.748;14.326;2022-08-21T13:32:50;26.60;53.60
51613;DHT22;37694;51.748;14.326;2022-08-21T13:37:46;26.60;52.80
51613;DHT22;37694;51.748;14.326;2022-08-21T13:40:22;26.60;53.10
51613;DHT22;37694;51.748;14.326;2022-08-21T13:42:49;26.70;52.80
51613;DHT22;37694;51.748;14.326;2022-08-21T13:45:26;26.60;52.80
51613;DHT22;37694;51.748;14.326;2022-08-21T13:47:53;26.60;52.50
51613;DHT22;37694;51.748;14.326;2022-08-21T13:50:21;26.70;52.50
51613;DHT22;37694;51.748;14.326;2022-08-21T13:53:07;26.70;52.50
51613;DHT22;37694;51.748;14.326;2022-08-21T13:55:41;26.70;52.10
51613;DHT22;37694;51.748;14.326;2022-08-21T13:58:08;26.70;52.20
51613;DHT22;37694;51.748;14.326;2022-08-21T14:00:45;26.70;52.20
51613;DHT22;37694;51.748;14.326;2022-08-21T14:03:13;26.70;52.40
51613;DHT22;37694;51.748;14.326;2022-08-21T14:05:48;26.70;52.60
51613;DHT22;37694;51.748;14.326;2022-08-21T14:08:39;26.70;52.60
51613;DHT22;37694;51.748;14.326;2022-08-21T14:11:12;26.70;52.50
51613;DHT22;37694;51.748;14.326;2022-08-21T14:13:49;26.70;52.30
51613;DHT22;37694;51.748;14.326;2022-08-21T14:16:25;26.70;52.30
51613;DHT22;37694;51.748;14.326;2022-08-21T14:19:20;26.80;52.10
51613;DHT22;37694;51.748;14.326;2022-08-21T14:21:47;26.80;52.30
51613;DHT22;37694;51.748;14.326;2022-08-21T14:24:25;26.80;51.80
51613;DHT22;37694;51.748;14.326;2022-08-21T14:29:18;26.80;51.20
51613;DHT22;37694;51.748;14.326;2022-08-21T14:31:50;26.80;52.00
51613;DHT22;37694;51.748;14.326;2022-08-21T14:34:16;26.80;51.40
51613;DHT22;37694;51.748;14.326;2022-08-21T14:36:43;26.70;51.30
51613;DHT22;37694;51.748;14.326;2022-08-21T14:39:09;26.70;50.60
51613;DHT22;37694;51.748;14.326;2022-08-21T14:41:35;26.70;51.30
51613;DHT22;37694;51.748;14.326;2022-08-21T14:44:02;26.70;50.60
51613;DHT22;37694;51.748;14.326;2022-08-21T14:46:30;26.70;50.00
51613;DHT22;37694;51.748;14.326;2022-08-21T14:48:57;26.70;49.80
51613;DHT22;37694;51.748;14.326;2022-08-21T14:51:23;26.70;49.80
51613;DHT22;37694;51.748;14.326;2022-08-21T14:53:48;26.70;49.80
51613;DHT22;37694;51.748;14.326;2022-08-21T14:56:14;26.70;49.50
51613;DHT22;37694;51.748;14.326;2022-08-21T14:58:46;26.60;49.20
51613;DHT22;37694;51.748;14.326;2022-08-21T15:01:14;26.60;50.10
51613;DHT22;37694;51.748;14.326;2022-08-21T15:03:40;26.60;49.50
51613;DHT22;37694;51.748;14.326;2022-08-21T15:06:07;26.60;50.20
51613;DHT22;37694;51.748;14.326;2022-08-21T15:08:32;26.70;49.20
51613;DHT22;37694;51.748;14.326;2022-08-21T15:11:00;26.70;49.20
51613;DHT22;37694;51.748;14.326;2022-08-21T15:13:26;26.70;49.50
51613;DHT22;37694;51.748;14.326;2022-08-21T15:15:52;26.70;48.70
51613;DHT22;37694;51.748;14.326;2022-08-21T15:18:19;26.70;48.30
51613;DHT22;37694;51.748;14.326;2022-08-21T15:20:45;26.70;48.50
51613;DHT22;37694;51.748;14.326;2022-08-21T15:23:12;26.70;48.40
51613;DHT22;37694;51.748;14.326;2022-08-21T15:25:41;26.70;47.90
51613;DHT22;37694;51.748;14.326;2022-08-21T15:28:07;26.70;47.70
51613;DHT22;37694;51.748;14.326;2022-08-21T15:30:34;26.60;47.30
51613;DHT22;37694;51.748;14.326;2022-08-21T15:32:59;26.60;47.30
51613;DHT22;37694;51.748;14.326;2022-08-21T15:35:25;26.60;47.30
51613;DHT22;37694;51.748;14.326;2022-08-21T15:37:51;26.60;47.50
51613;DHT22;37694;51.748;14.326;2022-08-21T15:40:17;26.60;47.50
51613;DHT22;37694;51.748;14.326;2022-08-21T15:42:43;26.60;47.60
51613;DHT22;37694;51.748;14.326;2022-08-21T15:45:11;26.60;47.10
51613;DHT22;37694;51.748;14.326;2022-08-21T15:47:38;26.60;47.40
51613;DHT22;37694;51.748;14.326;2022-08-21T15:50:07;26.60;46.90
51613;DHT22;37694;51.748;14.326;2022-08-21T15:52:33;26.60;47.30
51613;DHT22;37694;51.748;14.326;2022-08-21T15:54:59;26.60;47.10
51613;DHT22;37694;51.748;14.326;2022-08-21T15:57:25;26.60;47.40
51613;DHT22;37694;51.748;14.326;2022-08-21T15:59:59;26.60;47.80
51613;DHT22;37694;51.748;14.326;2022-08-21T16:02:32;26.60;47.10
51613;DHT22;37694;51.748;14.326;2022-08-21T16:04:58;26.60;46.80
51613;DHT22;37694;51.748;14.326;2022-08-21T16:07:24;26.60;46.60
51613;DHT22;37694;51.748;14.326;2022-08-21T16:09:50;26.50;46.40
51613;DHT22;37694;51.748;14.326;2022-08-21T16:12:38;26.50;46.10
51613;DHT22;37694;51.748;14.326;2022-08-21T16:15:08;26.60;47.00
51613;DHT22;37694;51.748;14.326;2022-08-21T16:17:34;26.50;46.70
51613;DHT22;37694;51.748;14.326;2022-08-21T16:20:03;26.50;46.40
51613;DHT22;37694;51.748;14.326;2022-08-21T16:22:29;26.50;46.50
51613;DHT22;37694;51.748;14.326;2022-08-21T16:24:55;26.50;46.50
51613;DHT22;37694;51.748;14.326;2022-08-21T16:27:21;26.50;47.40
51613;DHT22;37694;51.748;14.326;2022-08-21T16:29:47;26.50;47.30
51613;DHT22;37694;51.748;14.326;2022-08-21T16:32:13;26.50;47.70
51613;DHT22;37694;51.748;14.326;2022-08-21T16:34:42;26.50;47.00
51613;DHT22;37694;51.748;14.326;2022-08-21T16:37:09;26.50;46.70